Time;durP1;ratioP1;P1;durP2;ratioP2;P2;SDS_P1;SDS_P2;PMS_P1;PMS_P2;Temp;Humidity;BMP_temperature;BMP_pressure;BME280_temperature;BME280_humidity;BME280_pressure;Samples;Min_cycle;Max_cycle;Signal;HPM_P1;HPM_P2
2021/09/27 00:02:00;;;;;;;12.10;10.63;;;;;;;15.84;81.25;99085.69;2624441;39;20725;-68
2021/09/27 00:04:29;;;;;;;12.15;9.82;;;;;;;15.88;81.32;99090.56;2622787;39;20418;-68
2021/09/27 00:06:59;;;;;;;10.40;9.30;;;;;;;15.88;81.40;99093.22;2621198;54;20027;-68
2021/09/27 00:09:32;;;;;;;12.60;8.95;;;;;;;15.89;81.37;99093.03;2620192;54;20038;-69
2021/09/27 00:12:06;;;;;;;9.95;8.95;;;;;;;15.88;80.92;99088.75;2621117;54;20034;-68
2021/09/27 00:14:36;;;;;;;10.23;8.60;;;;;;;15.93;81.21;99096.06;2623366;54;20026;-68
2021/09/27 00:17:07;;;;;;;11.55;9.65;;;;;;;15.92;81.25;99089.94;2623274;54;20018;-68
2021/09/27 00:19:37;;;;;;;11.68;9.35;;;;;;;15.95;81.15;99080.66;2622921;54;20038;-68
2021/09/27 00:22:08;;;;;;;11.48;9.68;;;;;;;15.99;80.97;99087.19;2623500;39;20433;-68
2021/09/27 00:24:38;;;;;;;10.32;9.27;;;;;;;16.00;80.59;99081.66;2619727;54;20026;-68
2021/09/27 00:27:10;;;;;;;8.93;8.07;;;;;;;16.02;80.34;99086.75;2621053;39;20456;-68
2021/09/27 00:29:40;;;;;;;9.77;8.52;;;;;;;16.02;80.38;99081.41;2620270;54;20023;-67
2021/09/27 00:32:09;;;;;;;11.90;9.35;;;;;;;15.99;79.87;99082.66;2622984;54;20034;-68
2021/09/27 00:34:39;;;;;;;12.90;11.27;;;;;;;15.91;80.11;99084.78;2622833;54;20581;-68
2021/09/27 00:37:09;;;;;;;15.98;10.75;;;;;;;15.83;80.23;99077.91;2622711;54;20033;-68
2021/09/27 00:39:38;;;;;;;11.88;10.68;;;;;;;15.81;80.53;99083.47;2623192;54;20031;-68
2021/09/27 00:42:11;;;;;;;12.10;10.90;;;;;;;15.79;79.98;99076.69;2621487;54;20026;-68
2021/09/27 00:44:40;;;;;;;12.55;11.23;;;;;;;15.70;80.36;99078.84;2622806;54;20046;-68
2021/09/27 00:47:10;;;;;;;12.40;11.13;;;;;;;15.63;80.08;99072.72;2623139;54;20046;-68
2021/09/27 00:49:40;;;;;;;13.88;11.52;;;;;;;15.56;80.90;99061.31;2623088;54;20042;-68
2021/09/27 00:52:10;;;;;;;12.65;11.10;;;;;;;15.55;81.01;99070.31;2622506;47;20045;-68
2021/09/27 00:54:40;;;;;;;9.38;8.38;;;;;;;15.56;80.84;99063.97;2622756;54;20038;-68
2021/09/27 00:57:16;;;;;;;8.25;7.45;;;;;;;15.61;81.00;99059.63;2623251;54;20041;-68
2021/09/27 00:59:50;;;;;;;8.77;7.05;;;;;;;15.69;80.98;99063.06;2623339;54;20030;-68
2021/09/27 01:02:20;;;;;;;8.20;7.35;;;;;;;15.72;80.77;99055.47;2622671;54;20049;-68
2021/09/27 01:04:49;;;;;;;7.90;7.10;;;;;;;15.71;80.40;99047.66;2622516;39;20680;-68
2021/09/27 01:07:29;;;;;;;11.00;7.57;;;;;;;15.71;80.25;99040.47;2622431;54;20030;-68
2021/09/27 01:10:14;;;;;;;11.15;8.07;;;;;;;15.68;80.39;99048.13;2622307;54;20037;-68
2021/09/27 01:13:17;;;;;;;11.88;8.48;;;;;;;15.61;79.88;99046.28;2620929;54;20027;-68
2021/09/27 01:15:58;;;;;;;9.38;7.80;;;;;;;15.50;80.54;99048.84;2620505;54;20053;-68
2021/09/27 01:18:40;;;;;;;12.90;8.70;;;;;;;15.44;80.31;99042.56;2619792;47;20034;-68
2021/09/27 01:21:20;;;;;;;8.40;7.60;;;;;;;15.39;80.78;99041.56;2620017;54;20034;-68
2021/09/27 01:24:18;;;;;;;9.55;8.23;;;;;;;15.35;80.43;99052.69;2620177;47;20040;-69
2021/09/27 01:27:21;;;;;;;7.78;6.97;;;;;;;15.33;81.07;99043.25;2620962;54;20025;-69
2021/09/27 01:30:19;;;;;;;7.90;6.78;;;;;;;15.30;80.82;99044.50;2620086;39;20450;-68
2021/09/27 01:32:55;;;;;;;7.45;6.75;;;;;;;15.33;80.96;99040.59;2620736;54;20046;-68
2021/09/27 01:35:33;;;;;;;6.47;5.88;;;;;;;15.40;80.81;99037.88;2620962;39;20441;-67
2021/09/27 01:38:14;;;;;;;6.90;5.90;;;;;;;15.46;80.91;99032.50;2620688;54;20043;-68
2021/09/27 01:40:54;;;;;;;6.78;6.10;;;;;;;15.49;80.75;99040.06;2620755;54;20027;-68
2021/09/27 01:43:29;;;;;;;7.63;6.65;;;;;;;15.51;80.13;99045.16;2619793;54;20022;-68
2021/09/27 01:46:03;;;;;;;8.70;6.75;;;;;;;15.46;79.92;99042.34;2619356;54;20049;-68
2021/09/27 01:48:44;;;;;;;8.50;7.03;;;;;;;15.43;79.87;99043.59;2619358;54;20033;-68
2021/09/27 01:51:21;;;;;;;7.95;6.70;;;;;;;15.32;80.25;99041.63;2620619;39;20434;-68
2021/09/27 01:53:58;;;;;;;8.40;7.47;;;;;;;15.21;80.22;99037.81;2619320;54;20030;-69
2021/09/27 01:56:33;;;;;;;7.93;7.13;;;;;;;15.21;80.43;99051.13;2619229;54;20045;-67
2021/09/27 01:59:12;;;;;;;8.57;7.60;;;;;;;15.23;80.87;99042.94;2618844;54;20018;-68
2021/09/27 02:01:53;;;;;;;10.40;7.55;;;;;;;15.19;80.39;99039.91;2618735;54;20030;-68
2021/09/27 02:04:33;;;;;;;9.10;7.78;;;;;;;15.13;80.84;99043.41;2618492;54;20026;-68
2021/09/27 02:07:03;;;;;;;8.00;7.20;;;;;;;15.04;80.50;99037.53;2621653;54;20569;-68
2021/09/27 02:09:38;;;;;;;9.82;8.00;;;;;;;15.00;80.97;99044.31;2622902;47;20027;-67
2021/09/27 02:12:12;;;;;;;10.70;7.93;;;;;;;14.96;81.46;99043.13;2623007;54;20043;-67
2021/09/27 02:14:48;;;;;;;8.73;7.82;;;;;;;14.95;81.30;99044.16;2622381;47;20034;-67
2021/09/27 02:17:26;;;;;;;9.95;8.30;;;;;;;14.93;81.54;99040.88;2623394;47;20033;-68
2021/09/27 02:20:05;;;;;;;8.88;7.07;;;;;;;14.90;81.43;99040.50;2623748;46;20057;-68
2021/09/27 02:22:45;;;;;;;9.25;7.00;;;;;;;14.90;81.33;99032.50;2623055;54;20041;-67
2021/09/27 02:25:19;;;;;;;7.65;6.85;;;;;;;14.90;81.60;99040.50;2622602;54;20034;-67
2021/09/27 02:27:51;;;;;;;8.00;7.20;;;;;;;14.94;81.35;99039.88;2622806;54;20033;-68
2021/09/27 02:30:29;;;;;;;8.02;6.80;;;;;;;14.90;81.49;99046.66;2623458;54;20037;-68
2021/09/27 02:33:06;;;;;;;9.93;7.15;;;;;;;14.93;81.29;99040.88;2624808;54;20038;-68
2021/09/27 02:35:45;;;;;;;10.15;8.10;;;;;;;14.93;81.37;99042.72;2624174;54;20025;-68
2021/09/27 02:38:22;;;;;;;9.77;7.75;;;;;;;14.88;81.51;99037.25;2625847;39;20423;-68
2021/09/27 02:40:58;;;;;;;8.38;7.57;;;;;;;14.89;81.31;99038.88;2624925;54;20077;-68
2021/09/27 02:43:29;;;;;;;9.13;8.13;;;;;;;14.83;81.22;99030.72;2624869;54;20033;-67
2021/09/27 02:45:59;;;;;;;7.60;6.90;;;;;;;14.77;81.62;99033.41;2624684;54;20035;-67
2021/09/27 02:48:36;;;;;;;8.93;6.88;;;;;;;14.76;81.38;99029.13;2625078;54;20030;-67
2021/09/27 02:51:10;;;;;;;7.95;6.65;;;;;;;14.69;81.19;99023.81;2624732;54;20042;-67
2021/09/27 02:53:40;;;;;;;9.30;7.40;;;;;;;14.70;81.25;99030.00;2624734;54;20554;-67
2021/09/27 02:56:26;;;;;;;8.50;7.38;;;;;;;14.68;81.61;99026.72;2624903;54;20040;-67
2021/09/27 02:59:07;;;;;;;8.75;7.07;;;;;;;14.63;81.65;99023.88;2621819;54;20576;-67
2021/09/27 03:01:47;;;;;;;8.07;7.32;;;;;;;14.57;81.82;99025.53;2621990;54;20045;-68
2021/09/27 03:04:24;;;;;;;9.38;8.35;;;;;;;14.51;81.72;99019.22;2621206;54;20022;-68
2021/09/27 03:07:09;;;;;;;9.57;8.40;;;;;;;14.51;82.01;99015.75;2623240;54;20530;-68
2021/09/27 03:09:47;;;;;;;11.57;8.57;;;;;;;14.47;81.96;99009.19;2623326;54;20031;-68
2021/09/27 03:12:28;;;;;;;9.57;7.70;;;;;;;14.43;82.39;99000.81;2622838;54;20030;-67
2021/09/27 03:15:21;;;;;;;8.82;7.57;;;;;;;14.38;81.76;98998.81;2622732;54;20065;-67
2021/09/27 03:18:01;;;;;;;9.20;8.13;;;;;;;14.33;82.43;99006.63;2622956;54;20564;-67
2021/09/27 03:20:58;;;;;;;10.32;7.82;;;;;;;14.36;81.91;99002.69;2622991;54;20633;-68
2021/09/27 03:23:41;;;;;;;10.38;9.27;;;;;;;14.38;81.17;99012.09;2621762;54;20037;-67
2021/09/27 03:26:19;;;;;;;12.23;8.57;;;;;;;14.24;81.39;99005.19;2623639;39;20094;-67
2021/09/27 03:29:00;;;;;;;11.63;8.63;;;;;;;14.16;81.56;99012.59;2623442;39;20449;-68
2021/09/27 03:31:39;;;;;;;9.65;7.63;;;;;;;14.03;82.08;99016.13;2623817;39;20128;-67
2021/09/27 03:34:16;;;;;;;11.98;7.50;;;;;;;14.09;82.36;99017.97;2623363;54;20033;-67
2021/09/27 03:37:02;;;;;;;12.95;8.68;;;;;;;14.17;82.01;99027.53;2623460;54;20034;-67
2021/09/27 03:39:41;;;;;;;12.15;10.93;;;;;;;14.16;81.88;99012.59;2623555;54;20034;-67
2021/09/27 03:42:19;;;;;;;12.05;9.60;;;;;;;14.04;81.54;99029.22;2624549;54;20109;-67
2021/09/27 03:44:56;;;;;;;11.15;8.93;;;;;;;13.98;82.22;99021.25;2623984;54;20039;-68
2021/09/27 03:47:32;;;;;;;10.05;9.05;;;;;;;13.92;81.97;99030.91;2624152;54;20130;-68
2021/09/27 03:50:08;;;;;;;10.02;9.02;;;;;;;13.87;82.17;99020.84;2624553;54;20030;-67
2021/09/27 03:52:44;;;;;;;16.08;11.27;;;;;;;13.82;82.60;99028.66;2624106;54;20027;-68
2021/09/27 03:55:23;;;;;;;11.30;9.77;;;;;;;13.86;82.60;99029.06;2624379;54;20038;-67
2021/09/27 03:58:00;;;;;;;9.82;8.10;;;;;;;13.86;82.61;99034.38;2624229;39;20421;-67
2021/09/27 04:00:34;;;;;;;12.00;8.30;;;;;;;13.91;82.92;99026.59;2624824;39;20445;-67
2021/09/27 04:03:11;;;;;;;10.05;8.27;;;;;;;13.86;83.02;99029.06;2624503;54;20047;-68
2021/09/27 04:05:51;;;;;;;9.25;7.95;;;;;;;13.92;83.09;99038.88;2622987;47;20557;-68
2021/09/27 04:08:28;;;;;;;9.05;7.95;;;;;;;13.94;82.90;99036.81;2623641;54;20030;-68
2021/09/27 04:11:12;;;;;;;9.65;8.30;;;;;;;14.01;82.71;99034.94;2622270;54;20030;-68
2021/09/27 04:13:46;;;;;;;8.65;7.75;;;;;;;13.93;82.11;99032.53;2621575;47;20530;-68
2021/09/27 04:16:27;;;;;;;12.27;9.18;;;;;;;13.93;82.29;99031.72;2621814;47;20027;-68
2021/09/27 04:19:05;;;;;;;12.60;11.25;;;;;;;13.96;82.65;99032.09;2623266;54;20077;-67
2021/09/27 04:21:42;;;;;;;10.48;8.13;;;;;;;13.88;81.91;99030.50;2622522;54;20035;-68
2021/09/27 04:24:30;;;;;;;13.35;10.68;;;;;;;13.82;82.43;99027.84;2621301;54;20037;-67
2021/09/27 04:27:28;;;;;;;14.15;8.60;;;;;;;13.76;81.93;99023.38;2621317;54;20034;-67
2021/09/27 04:30:25;;;;;;;12.38;7.55;;;;;;;13.66;82.20;99022.97;2620897;54;20034;-68
2021/09/27 04:33:21;;;;;;;12.50;6.97;;;;;;;13.71;83.04;99025.81;2621097;54;20037;-68
2021/09/27 04:35:59;;;;;;;13.80;10.00;;;;;;;13.78;82.39;99026.63;2622200;54;20026;-68
2021/09/27 04:38:30;;;;;;;13.10;9.48;;;;;;;13.75;81.76;99033.16;2623749;54;20033;-68
2021/09/27 04:41:24;;;;;;;13.05;9.43;;;;;;;13.69;82.19;99038.50;2623408;54;20036;-68
2021/09/27 04:44:07;;;;;;;13.05;9.55;;;;;;;13.65;81.67;99037.28;2623036;54;20061;-67
2021/09/27 04:46:43;;;;;;;11.27;9.68;;;;;;;13.54;82.01;99031.56;2622560;54;20037;-68
2021/09/27 04:49:32;;;;;;;13.55;10.57;;;;;;;13.51;82.08;99029.34;2624131;54;20034;-70
2021/09/27 04:52:10;;;;;;;15.18;8.93;;;;;;;13.44;82.49;99028.50;2623208;47;20022;-69
2021/09/27 04:55:09;;;;;;;11.30;9.65;;;;;;;13.46;82.32;99033.59;2623082;54;20037;-68
2021/09/27 04:57:50;;;;;;;14.82;9.27;;;;;;;13.43;82.72;99041.97;2622260;47;20042;-68
2021/09/27 05:00:34;;;;;;;12.73;9.63;;;;;;;13.52;82.89;99044.22;2620737;54;20041;-67
2021/09/27 05:03:11;;;;;;;;;;;;;;;13.57;82.40;99051.59;2621652;39;20466;-66
2021/09/27 05:05:53;;;;;;;12.77;8.73;;;;;;;13.61;82.39;99047.50;2620763;54;19990;-66
2021/09/27 05:08:38;;;;;;;12.10;9.68;;;;;;;13.71;81.97;99053.19;2620474;47;20034;-66
2021/09/27 05:11:21;;;;;;;11.05;9.43;;;;;;;13.72;81.98;99043.41;2621405;54;20030;-66
2021/09/27 05:14:18;;;;;;;11.10;8.52;;;;;;;13.68;82.40;99037.69;2622302;54;20026;-66
2021/09/27 05:17:04;;;;;;;15.68;9.55;;;;;;;13.67;81.75;99036.03;2622556;54;20038;-66
2021/09/27 05:20:04;;;;;;;11.80;8.40;;;;;;;13.59;82.31;99039.75;2622566;54;20550;-66
2021/09/27 05:22:47;;;;;;;11.85;9.75;;;;;;;13.61;81.72;99043.00;2623428;54;20585;-67
2021/09/27 05:25:57;;;;;;;10.30;9.25;;;;;;;13.58;81.91;99038.09;2622530;54;20656;-67
2021/09/27 05:28:37;;;;;;;13.77;9.75;;;;;;;13.57;82.86;99031.16;2622155;54;20038;-67
2021/09/27 05:31:34;;;;;;;12.85;9.63;;;;;;;13.68;82.38;99040.34;2622415;39;20400;-67
2021/09/27 05:34:18;;;;;;;13.40;9.25;;;;;;;13.69;82.32;99041.97;2621359;54;20109;-67
2021/09/27 05:37:04;;;;;;;12.00;9.40;;;;;;;13.71;81.89;99037.25;2621119;54;20022;-67
2021/09/27 05:39:56;;;;;;;14.85;10.27;;;;;;;13.66;82.21;99034.41;2622363;54;20039;-67
2021/09/27 05:42:39;;;;;;;12.00;9.70;;;;;;;13.71;82.23;99031.13;2622326;54;20038;-67
2021/09/27 05:45:17;;;;;;;14.63;9.13;;;;;;;13.71;81.39;99036.44;2621996;54;20035;-66
2021/09/27 05:47:54;;;;;;;11.38;8.70;;;;;;;13.62;81.34;99027.88;2622048;54;20065;-67
2021/09/27 05:50:32;;;;;;;10.93;9.43;;;;;;;13.62;81.34;99030.53;2621751;54;20023;-67
2021/09/27 05:53:10;;;;;;;9.95;8.65;;;;;;;13.61;81.82;99024.41;2622712;54;20031;-67
2021/09/27 05:55:46;;;;;;;12.80;9.10;;;;;;;13.62;81.50;99028.69;2622200;54;20046;-67
2021/09/27 05:58:25;;;;;;;12.00;8.93;;;;;;;13.63;81.84;99029.50;2621985;54;20030;-68
2021/09/27 06:01:02;;;;;;;10.00;8.73;;;;;;;13.63;81.88;99026.84;2622245;54;20038;-68
2021/09/27 06:03:52;;;;;;;14.05;9.43;;;;;;;13.71;82.08;99026.63;2621799;54;20546;-67
2021/09/27 06:06:35;;;;;;;13.05;8.13;;;;;;;13.83;81.57;99037.44;2621712;54;20018;-67
2021/09/27 06:09:22;;;;;;;18.25;10.77;;;;;;;13.91;81.27;99029.25;2623366;39;20403;-67
2021/09/27 06:12:01;;;;;;;11.52;9.30;;;;;;;13.96;80.95;99041.91;2621966;54;20038;-67
2021/09/27 06:14:33;;;;;;;10.13;8.25;;;;;;;13.96;80.94;99040.09;2622378;39;20453;-67
2021/09/27 06:17:20;;;;;;;13.50;8.88;;;;;;;14.00;80.79;99040.44;2622264;54;20027;-67
2021/09/27 06:19:58;;;;;;;13.57;8.68;;;;;;;13.98;80.82;99037.19;2621694;54;20038;-67
2021/09/27 06:22:48;;;;;;;10.10;9.07;;;;;;;14.08;80.98;99030.44;2621903;54;20565;-67
2021/09/27 06:25:24;;;;;;;23.52;15.25;;;;;;;14.18;80.79;99047.78;2621291;54;20030;-68
2021/09/27 06:28:16;;;;;;;26.83;9.85;;;;;;;14.24;80.68;99044.28;2621523;51;20038;-68
2021/09/27 06:30:50;;;;;;;12.52;9.48;;;;;;;14.31;80.74;99037.09;2622691;54;20038;-68
2021/09/27 06:33:27;;;;;;;16.02;11.80;;;;;;;14.42;80.00;99043.59;2618784;47;20038;-68
2021/09/27 06:36:00;;;;;;;14.02;11.02;;;;;;;14.46;80.21;99037.66;2616689;54;20033;-67
2021/09/27 06:38:36;;;;;;;13.05;9.35;;;;;;;14.43;80.02;99039.91;2617421;47;20074;-66
2021/09/27 06:41:10;;;;;;;11.48;9.20;;;;;;;14.36;80.24;99046.06;2618187;54;20030;-66
2021/09/27 06:43:40;;;;;;;13.05;9.35;;;;;;;14.50;80.37;99038.88;2617931;54;20033;-66
2021/09/27 06:46:09;;;;;;;12.55;8.88;;;;;;;14.60;79.89;99035.75;2618293;54;20029;-66
2021/09/27 06:48:39;;;;;;;15.55;9.38;;;;;;;14.68;79.97;99040.00;2618413;54;20609;-66
2021/09/27 06:51:09;;;;;;;11.45;9.00;;;;;;;14.73;79.49;99035.69;2618168;54;20069;-66
2021/09/27 06:53:41;;;;;;;11.75;9.52;;;;;;;14.76;79.75;99037.91;2617834;54;20089;-66
2021/09/27 06:56:11;;;;;;;10.95;9.50;;;;;;;14.76;79.73;99029.94;2618003;54;20034;-67
2021/09/27 06:58:41;;;;;;;13.00;10.30;;;;;;;14.81;79.50;99031.94;2617534;47;20057;-66
2021/09/27 07:01:11;;;;;;;11.30;9.40;;;;;;;14.90;79.95;99030.69;2618019;54;20038;-67
2021/09/27 07:03:40;;;;;;;13.35;10.02;;;;;;;14.95;79.42;99020.19;2617996;54;20039;-66
2021/09/27 07:06:10;;;;;;;12.50;9.95;;;;;;;15.01;79.64;99024.66;2617954;54;20014;-66
2021/09/27 07:08:42;;;;;;;13.77;10.07;;;;;;;15.06;79.68;99026.66;2617497;54;20022;-67
2021/09/27 07:11:12;;;;;;;12.70;10.05;;;;;;;15.13;79.21;99029.28;2617376;54;20033;-66
2021/09/27 07:13:42;;;;;;;13.25;10.35;;;;;;;15.22;79.48;99033.31;2618273;39;20474;-66
2021/09/27 07:16:12;;;;;;;12.18;9.88;;;;;;;15.29;79.07;99026.91;2617885;54;20038;-66
2021/09/27 07:19:02;;;;;;;11.90;10.27;;;;;;;15.32;79.34;99033.66;2618890;54;20031;-66
2021/09/27 07:21:32;;;;;;;14.07;11.43;;;;;;;15.34;78.95;99040.38;2619154;39;20539;-67
2021/09/27 07:24:06;;;;;;;19.45;12.85;;;;;;;15.37;78.97;99025.81;2618146;54;20657;-66
2021/09/27 07:26:37;;;;;;;17.15;10.45;;;;;;;15.39;78.46;99033.56;2618906;54;20065;-66
2021/09/27 07:29:07;;;;;;;14.55;12.50;;;;;;;15.42;78.86;99028.63;2618213;54;20027;-66
2021/09/27 07:31:38;;;;;;;13.50;10.70;;;;;;;15.55;78.76;99038.34;2618885;54;20022;-66
2021/09/27 07:34:09;;;;;;;13.77;12.02;;;;;;;15.71;78.28;99037.81;2618500;54;20046;-66
2021/09/27 07:36:40;;;;;;;12.75;10.65;;;;;;;15.95;77.98;99040.66;2618245;54;20030;-66
2021/09/27 07:39:12;;;;;;;16.65;12.35;;;;;;;16.15;77.76;99027.94;2618139;54;20065;-66
2021/09/27 07:41:42;;;;;;;11.93;10.10;;;;;;;16.16;77.20;99039.41;2618615;46;20033;-67
2021/09/27 07:44:12;;;;;;;12.98;10.70;;;;;;;16.24;77.49;99031.09;2618507;54;20558;-66
2021/09/27 07:46:42;;;;;;;16.02;10.55;;;;;;;16.30;76.92;99031.03;2618789;54;20038;-66
2021/09/27 07:49:12;;;;;;;13.80;11.05;;;;;;;16.34;77.22;99026.88;2618186;54;20038;-67
2021/09/27 07:51:43;;;;;;;12.00;10.80;;;;;;;16.35;77.35;99028.50;2617803;54;20038;-66
2021/09/27 07:54:15;;;;;;;13.10;10.13;;;;;;;16.31;77.25;99026.50;2617610;47;20035;-66
2021/09/27 07:56:45;;;;;;;10.85;9.55;;;;;;;16.27;77.24;99015.47;2618870;54;20030;-66
2021/09/27 07:59:15;;;;;;;15.05;10.88;;;;;;;16.32;77.47;99018.28;2618840;54;20037;-66
2021/09/27 08:01:44;;;;;;;13.23;10.35;;;;;;;16.47;77.95;99028.56;2619386;54;20034;-66
2021/09/27 08:04:15;;;;;;;12.18;10.50;;;;;;;16.68;77.07;99035.25;2622637;54;20042;-67
2021/09/27 08:06:45;;;;;;;12.68;10.43;;;;;;;16.77;76.70;99033.91;2623308;54;20041;-67
2021/09/27 08:09:17;;;;;;;16.50;13.32;;;;;;;16.85;76.44;99027.44;2623595;54;20546;-66
2021/09/27 18:37:10;;;;;;;5.32;3.60;;;;;;;18.91;66.80;99029.84;2621128;47;20033;-68
2021/09/27 18:39:39;;;;;;;3.90;3.38;;;;;;;18.88;67.10;99033.00;2621366;54;20037;-69
2021/09/27 18:42:09;;;;;;;4.30;3.50;;;;;;;18.85;67.23;99028.13;2619838;54;20042;-70
2021/09/27 18:44:39;;;;;;;4.15;3.10;;;;;;;18.80;67.24;99036.88;2621075;39;20458;-69
2021/09/27 18:47:12;;;;;;;7.22;3.50;;;;;;;18.82;67.65;99044.69;2619358;54;20031;-70
2021/09/27 18:49:42;;;;;;;5.05;3.30;;;;;;;18.86;67.54;99050.38;2618708;54;20573;-69
2021/09/27 18:52:14;;;;;;;4.07;3.30;;;;;;;18.87;67.61;99039.44;2619910;54;20031;-69
2021/09/27 18:54:44;;;;;;;4.80;3.92;;;;;;;18.87;67.50;99052.00;2622247;54;20026;-68
2021/09/27 18:57:14;;;;;;;5.22;3.40;;;;;;;18.87;67.85;99060.84;2622438;54;20034;-69
2021/09/27 18:59:43;;;;;;;4.43;3.30;;;;;;;18.86;67.91;99053.03;2622511;54;20038;-69
2021/09/27 19:02:13;;;;;;;4.88;4.38;;;;;;;18.87;67.78;99054.69;2622334;54;20034;-70
2021/09/27 19:04:43;;;;;;;9.70;4.07;;;;;;;18.83;67.47;99057.03;2622039;54;20026;-69
2021/09/27 19:07:15;;;;;;;4.47;3.33;;;;;;;18.86;67.48;99053.03;2622370;54;20030;-68
2021/09/27 19:09:45;;;;;;;5.93;5.30;;;;;;;18.90;67.55;99063.06;2621779;54;20058;-71
2021/09/27 19:12:15;;;;;;;6.40;4.35;;;;;;;18.90;67.68;99067.56;2622909;39;20425;-71
2021/09/27 19:14:45;;;;;;;6.35;4.35;;;;;;;18.91;67.92;99069.22;2623242;54;20038;-71
2021/09/27 19:17:15;;;;;;;5.82;4.78;;;;;;;18.92;67.60;99060.13;2623178;54;20050;-69
2021/09/27 19:19:44;;;;;;;3.85;3.20;;;;;;;18.92;67.36;99074.34;2622928;54;20031;-70
2021/09/27 19:22:16;;;;;;;3.63;3.30;;;;;;;18.92;67.70;99068.97;2622983;54;20082;-69
2021/09/27 19:24:46;;;;;;;3.35;3.05;;;;;;;18.94;67.69;99071.41;2621944;54;20039;-68
2021/09/27 19:27:16;;;;;;;3.88;3.20;;;;;;;18.94;67.79;99085.63;2621955;54;20038;-68
2021/09/27 19:29:45;;;;;;;3.63;3.33;;;;;;;18.91;67.89;99093.34;2622346;54;20074;-68
2021/09/27 19:32:15;;;;;;;5.80;4.00;;;;;;;18.88;67.90;99118.72;2621686;54;20038;-69
2021/09/27 19:34:45;;;;;;;8.60;4.40;;;;;;;18.78;69.05;99140.78;2622791;39;20436;-70
2021/09/27 19:37:19;;;;;;;4.85;4.15;;;;;;;18.61;70.95;99153.22;2621090;47;20022;-70
2021/09/27 19:39:49;;;;;;;5.20;3.80;;;;;;;18.29;72.55;99152.84;2621795;47;20050;-71
2021/09/27 19:42:19;;;;;;;10.00;4.65;;;;;;;18.13;74.26;99153.53;2622157;46;20034;-67
2021/09/27 19:44:49;;;;;;;7.00;4.05;;;;;;;18.02;75.16;99158.63;2621121;46;20074;-70
2021/09/27 19:47:19;;;;;;;6.05;4.50;;;;;;;17.91;75.59;99158.63;2621073;54;20038;-69
2021/09/27 19:49:49;;;;;;;4.68;4.25;;;;;;;17.85;76.14;99165.72;2622290;39;20414;-70
2021/09/27 19:52:21;;;;;;;6.38;4.53;;;;;;;17.81;77.11;99167.22;2622384;54;20027;-70
2021/09/27 19:54:51;;;;;;;8.10;4.68;;;;;;;17.78;77.17;99167.69;2621728;54;20038;-69
2021/09/27 19:57:20;;;;;;;6.88;4.85;;;;;;;17.79;77.76;99169.31;2621509;51;20114;-70
2021/09/27 19:59:50;;;;;;;5.65;4.90;;;;;;;17.73;78.12;99176.38;2621436;47;20035;-70
2021/09/27 20:02:19;;;;;;;9.18;5.90;;;;;;;17.64;78.54;99180.44;2622253;54;20037;-69
2021/09/27 20:04:50;;;;;;;11.05;6.20;;;;;;;17.69;79.00;99179.75;2621566;47;20038;-69
2021/09/27 20:07:22;;;;;;;6.72;5.43;;;;;;;17.72;78.97;99180.09;2620349;54;20030;-69
2021/09/27 20:09:52;;;;;;;5.82;5.07;;;;;;;17.65;79.49;99194.59;2621236;47;20042;-69
2021/09/27 20:12:21;;;;;;;8.50;5.75;;;;;;;17.63;79.54;99199.34;2622600;54;20046;-69
2021/09/27 20:14:51;;;;;;;9.23;5.90;;;;;;;17.61;79.74;99207.63;2622070;54;20586;-69
2021/09/27 20:17:20;;;;;;;6.40;4.70;;;;;;;17.56;79.99;99210.16;2622882;54;20058;-69
2021/09/27 20:19:50;;;;;;;4.85;3.40;;;;;;;17.45;79.70;99218.94;2622924;54;20042;-69
2021/09/27 20:22:22;;;;;;;3.10;2.78;;;;;;;17.34;79.77;99228.53;2623122;39;20458;-69
2021/09/27 20:24:52;;;;;;;4.25;2.97;;;;;;;17.25;79.74;99235.25;2621689;39;20419;-69
2021/09/27 20:27:22;;;;;;;3.78;3.42;;;;;;;17.21;80.23;99236.72;2622827;47;20034;-69
2021/09/27 20:29:51;;;;;;;5.30;3.08;;;;;;;17.26;79.96;99232.34;2623295;54;20030;-68
2021/09/27 20:32:24;;;;;;;4.10;3.05;;;;;;;17.29;79.78;99226.53;2623033;39;20510;-70
2021/09/27 20:34:54;;;;;;;2.13;1.98;;;;;;;17.21;79.63;99240.22;2621522;47;20027;-70
2021/09/27 20:37:28;;;;;;;1.88;1.73;;;;;;;17.15;79.63;99261.69;2622906;54;20030;-69
2021/09/27 20:39:58;;;;;;;2.25;1.98;;;;;;;17.10;79.62;99275.69;2623905;39;20564;-68
2021/09/27 20:42:30;;;;;;;3.05;1.92;;;;;;;17.06;79.13;99283.34;2622207;47;20023;-69
2021/09/27 20:44:59;;;;;;;3.28;1.98;;;;;;;17.06;79.21;99287.84;2621540;46;20019;-70
2021/09/27 20:47:29;;;;;;;4.63;1.98;;;;;;;17.08;79.20;99296.47;2622312;54;20547;-71
2021/09/27 20:50:00;;;;;;;4.82;2.10;;;;;;;17.08;79.38;99299.97;2622449;54;20043;-71
2021/09/27 20:52:32;;;;;;;2.40;1.65;;;;;;;17.00;79.42;99310.94;2622524;54;20026;-71
2021/09/27 20:55:02;;;;;;;1.30;1.20;;;;;;;16.78;77.51;99312.41;2622391;54;20026;-71
2021/09/27 20:57:31;;;;;;;1.85;1.20;;;;;;;16.61;77.49;99309.44;2621912;54;20077;-71
2021/09/27 21:00:01;;;;;;;2.10;0.95;;;;;;;16.53;76.93;99309.72;2623066;54;20035;-71
2021/09/27 21:02:31;;;;;;;5.00;1.30;;;;;;;16.43;76.23;99314.75;2622153;54;20022;-70
2021/09/27 21:05:00;;;;;;;1.38;0.82;;;;;;;16.26;75.66;99330.47;2622304;54;20038;-70
2021/09/27 21:07:32;;;;;;;2.35;0.93;;;;;;;16.23;75.84;99338.91;2622840;54;20046;-69
2021/09/27 21:10:02;;;;;;;2.50;1.00;;;;;;;16.16;75.72;99341.59;2622791;54;20030;-70
2021/09/27 21:12:31;;;;;;;2.38;1.08;;;;;;;16.14;75.17;99338.34;2622672;54;20042;-70
2021/09/27 21:15:02;;;;;;;1.70;0.80;;;;;;;16.10;75.25;99332.63;2622432;47;20040;-70
2021/09/27 21:17:33;;;;;;;1.42;0.90;;;;;;;16.13;75.23;99339.38;2622736;54;20062;-71
2021/09/27 21:20:03;;;;;;;2.95;1.58;;;;;;;16.14;74.81;99343.69;2622306;54;20026;-71
2021/09/27 21:22:35;;;;;;;4.53;1.17;;;;;;;16.12;74.29;99369.72;2622812;47;20027;-71
2021/09/27 21:25:06;;;;;;;1.35;0.90;;;;;;;16.08;73.74;99392.53;2620825;46;20033;-70
2021/09/27 21:27:35;;;;;;;2.05;1.10;;;;;;;16.02;73.50;99404.06;2621406;54;20035;-72
2021/09/27 21:30:07;;;;;;;2.33;1.10;;;;;;;15.92;73.41;99406.34;2621957;54;20034;-72
2021/09/27 21:32:37;;;;;;;3.70;1.45;;;;;;;15.83;73.20;99417.25;2621613;54;20023;-72
2021/09/27 21:35:08;;;;;;;5.30;1.25;;;;;;;15.74;73.52;99415.88;2621090;54;20030;-71
2021/09/27 21:37:41;;;;;;;2.70;1.45;;;;;;;15.73;74.13;99426.75;2620949;54;20029;-71
2021/09/27 21:40:13;;;;;;;3.38;1.05;;;;;;;15.75;74.58;99428.16;2620263;54;20030;-71
2021/09/27 21:42:44;;;;;;;3.17;1.10;;;;;;;15.77;74.36;99431.44;2620506;47;20030;-71
2021/09/27 21:45:15;;;;;;;2.92;1.10;;;;;;;15.76;74.26;99439.66;2619979;47;20545;-71
2021/09/27 21:47:47;;;;;;;1.67;0.95;;;;;;;15.71;74.04;99445.59;2619852;50;20030;-71
2021/09/27 21:50:19;;;;;;;5.20;1.20;;;;;;;15.66;74.32;99450.75;2620445;54;20043;-70
2021/09/27 21:52:51;;;;;;;1.58;1.20;;;;;;;15.70;74.41;99449.31;2620330;47;20546;-71
2021/09/27 21:55:21;;;;;;;3.28;1.30;;;;;;;15.74;73.78;99447.84;2619705;54;20550;-71
2021/09/27 21:57:51;;;;;;;4.63;1.52;;;;;;;15.69;73.35;99457.53;2619884;54;20042;-71
2021/09/27 22:00:37;;;;;;;7.07;1.65;;;;;;;15.64;73.50;99462.63;2621020;39;20495;-71
2021/09/27 22:03:06;;;;;;;3.65;1.20;;;;;;;15.59;74.29;99466.75;2622049;47;20669;-71
2021/09/27 22:05:39;;;;;;;4.28;1.92;;;;;;;15.57;73.84;99458.13;2622106;54;20015;-71
2021/09/27 22:08:11;;;;;;;4.38;0.93;;;;;;;15.55;74.56;99456.69;2621825;31;20661;-71
2021/09/27 22:10:42;;;;;;;3.30;1.30;;;;;;;15.59;74.05;99464.09;2622789;54;20027;-71
2021/09/27 22:13:13;;;;;;;6.93;1.48;;;;;;;15.56;73.63;99463.69;2622658;54;20030;-71
2021/09/27 22:15:44;;;;;;;3.92;1.33;;;;;;;15.47;73.83;99456.91;2622291;54;20027;-72
2021/09/27 22:18:14;;;;;;;5.32;1.20;;;;;;;15.47;74.30;99467.56;2622689;39;20423;-71
2021/09/27 22:20:46;;;;;;;3.38;1.25;;;;;;;15.43;73.93;99477.84;2623665;54;20027;-71
2021/09/27 22:23:16;;;;;;;2.83;1.10;;;;;;;15.38;73.79;99485.63;2623280;50;20038;-71
2021/09/27 22:25:45;;;;;;;4.47;1.10;;;;;;;15.31;74.09;99480.31;2624831;39;20485;-71
2021/09/27 22:28:16;;;;;;;5.10;1.13;;;;;;;15.23;74.02;99475.22;2620511;54;20030;-71
2021/09/27 22:30:45;;;;;;;3.65;1.20;;;;;;;15.16;74.02;99466.41;2619406;54;20078;-71
2021/09/27 22:33:15;;;;;;;4.95;1.40;;;;;;;15.15;74.36;99463.94;2621814;54;20026;-71